sensor_id;sensor_type;location;lat;lon;timestamp;temperature;humidity
4509;DHT22;2267;48.816;9.230;2023-05-29T00:02:12;19.70;80.30
4509;DHT22;2267;48.816;9.230;2023-05-29T00:04:39;19.70;79.80
4509;DHT22;2267;48.816;9.230;2023-05-29T00:07:07;19.60;79.80
4509;DHT22;2267;48.816;9.230;2023-05-29T00:09:34;19.60;80.30
4509;DHT22;2267;48.816;9.230;2023-05-29T00:12:00;19.60;80.40
4509;DHT22;2267;48.816;9.230;2023-05-29T00:14:28;19.60;80.30
4509;DHT22;2267;48.816;9.230;2023-05-29T00:16:54;19.50;80.30
4509;DHT22;2267;48.816;9.230;2023-05-29T00:19:21;19.50;80.50
4509;DHT22;2267;48.816;9.230;2023-05-29T00:21:48;19.50;80.70
4509;DHT22;2267;48.816;9.230;2023-05-29T00:24:16;19.50;80.70
4509;DHT22;2267;48.816;9.230;2023-05-29T00:26:44;19.40;80.40
4509;DHT22;2267;48.816;9.230;2023-05-29T00:29:11;19.40;81.50
4509;DHT22;2267;48.816;9.230;2023-05-29T00:31:38;19.30;81.20
4509;DHT22;2267;48.816;9.230;2023-05-29T00:34:07;19.30;81.80
4509;DHT22;2267;48.816;9.230;2023-05-29T00:36:40;19.30;82.00
4509;DHT22;2267;48.816;9.230;2023-05-29T00:39:06;19.30;82.00
4509;DHT22;2267;48.816;9.230;2023-05-29T00:41:33;19.20;82.00
4509;DHT22;2267;48.816;9.230;2023-05-29T00:44:02;19.20;82.30
4509;DHT22;2267;48.816;9.230;2023-05-29T00:46:30;19.10;82.30
4509;DHT22;2267;48.816;9.230;2023-05-29T00:48:59;19.10;82.10
4509;DHT22;2267;48.816;9.230;2023-05-29T00:51:27;19.10;82.70
4509;DHT22;2267;48.816;9.230;2023-05-29T00:53:55;19.00;83.00
4509;DHT22;2267;48.816;9.230;2023-05-29T00:56:24;19.00;83.20
4509;DHT22;2267;48.816;9.230;2023-05-29T00:58:52;19.00;83.60
4509;DHT22;2267;48.816;9.230;2023-05-29T01:01:19;18.90;83.80
4509;DHT22;2267;48.816;9.230;2023-05-29T01:03:48;18.90;84.10
4509;DHT22;2267;48.816;9.230;2023-05-29T01:06:15;18.90;84.20
4509;DHT22;2267;48.816;9.230;2023-05-29T01:08:42;18.80;84.70
4509;DHT22;2267;48.816;9.230;2023-05-29T01:14:27;18.80;85.10
4509;DHT22;2267;48.816;9.230;2023-05-29T01:22:12;18.70;83.90
4509;DHT22;2267;48.816;9.230;2023-05-29T01:27:46;18.60;83.70
4509;DHT22;2267;48.816;9.230;2023-05-29T01:30:16;18.60;83.30
4509;DHT22;2267;48.816;9.230;2023-05-29T01:32:43;18.60;83.10
4509;DHT22;2267;48.816;9.230;2023-05-29T01:35:11;18.50;83.70
4509;DHT22;2267;48.816;9.230;2023-05-29T01:37:39;18.50;83.70
4509;DHT22;2267;48.816;9.230;2023-05-29T01:40:08;18.50;83.30
4509;DHT22;2267;48.816;9.230;2023-05-29T01:42:35;18.40;83.80
4509;DHT22;2267;48.816;9.230;2023-05-29T01:45:02;18.40;83.60
4509;DHT22;2267;48.816;9.230;2023-05-29T01:47:32;18.40;83.30
4509;DHT22;2267;48.816;9.230;2023-05-29T01:49:59;18.30;83.00
4509;DHT22;2267;48.816;9.230;2023-05-29T01:52:26;18.30;83.20
4509;DHT22;2267;48.816;9.230;2023-05-29T01:54:53;18.30;83.50
4509;DHT22;2267;48.816;9.230;2023-05-29T01:57:21;18.30;83.80
4509;DHT22;2267;48.816;9.230;2023-05-29T01:59:48;18.30;83.80
4509;DHT22;2267;48.816;9.230;2023-05-29T02:02:15;18.20;83.70
4509;DHT22;2267;48.816;9.230;2023-05-29T02:04:42;18.20;83.70
4509;DHT22;2267;48.816;9.230;2023-05-29T02:07:09;18.20;83.40
4509;DHT22;2267;48.816;9.230;2023-05-29T02:09:38;18.20;83.90
4509;DHT22;2267;48.816;9.230;2023-05-29T02:12:05;18.10;84.10
4509;DHT22;2267;48.816;9.230;2023-05-29T02:14:33;18.10;84.00
4509;DHT22;2267;48.816;9.230;2023-05-29T02:17:00;18.00;84.20
4509;DHT22;2267;48.816;9.230;2023-05-29T02:19:28;18.00;84.30
4509;DHT22;2267;48.816;9.230;2023-05-29T02:21:55;18.00;84.70
4509;DHT22;2267;48.816;9.230;2023-05-29T02:24:22;18.00;84.70
4509;DHT22;2267;48.816;9.230;2023-05-29T02:26:49;18.00;84.80
4509;DHT22;2267;48.816;9.230;2023-05-29T02:29:17;17.90;84.30
4509;DHT22;2267;48.816;9.230;2023-05-29T02:31:44;17.90;84.50
4509;DHT22;2267;48.816;9.230;2023-05-29T02:34:11;17.90;85.10
4509;DHT22;2267;48.816;9.230;2023-05-29T02:36:37;17.80;85.10
4509;DHT22;2267;48.816;9.230;2023-05-29T02:39:05;17.80;84.60
4509;DHT22;2267;48.816;9.230;2023-05-29T02:41:32;17.80;84.70
4509;DHT22;2267;48.816;9.230;2023-05-29T02:43:59;17.80;85.20
4509;DHT22;2267;48.816;9.230;2023-05-29T02:46:26;17.70;84.70
4509;DHT22;2267;48.816;9.230;2023-05-29T02:48:53;17.70;85.50
4509;DHT22;2267;48.816;9.230;2023-05-29T02:51:19;17.60;85.50
4509;DHT22;2267;48.816;9.230;2023-05-29T02:53:46;17.60;85.20
4509;DHT22;2267;48.816;9.230;2023-05-29T02:56:14;17.60;85.80
4509;DHT22;2267;48.816;9.230;2023-05-29T02:58:42;17.50;86.10
4509;DHT22;2267;48.816;9.230;2023-05-29T03:01:09;17.50;85.30
4509;DHT22;2267;48.816;9.230;2023-05-29T03:03:36;17.50;85.90
4509;DHT22;2267;48.816;9.230;2023-05-29T03:06:03;17.40;85.30
4509;DHT22;2267;48.816;9.230;2023-05-29T03:08:31;17.40;85.80
4509;DHT22;2267;48.816;9.230;2023-05-29T03:10:58;17.40;86.10
4509;DHT22;2267;48.816;9.230;2023-05-29T03:13:24;17.40;86.50
4509;DHT22;2267;48.816;9.230;2023-05-29T03:15:51;17.40;86.70
4509;DHT22;2267;48.816;9.230;2023-05-29T03:18:23;17.40;86.40
4509;DHT22;2267;48.816;9.230;2023-05-29T03:20:50;17.40;87.20
4509;DHT22;2267;48.816;9.230;2023-05-29T03:23:17;17.30;86.30
4509;DHT22;2267;48.816;9.230;2023-05-29T03:25:44;17.30;86.70
4509;DHT22;2267;48.816;9.230;2023-05-29T03:28:11;17.30;86.70
4509;DHT22;2267;48.816;9.230;2023-05-29T03:30:37;17.30;86.80
4509;DHT22;2267;48.816;9.230;2023-05-29T03:33:04;17.20;87.10
4509;DHT22;2267;48.816;9.230;2023-05-29T03:35:33;17.20;87.10
4509;DHT22;2267;48.816;9.230;2023-05-29T03:38:00;17.20;87.20
4509;DHT22;2267;48.816;9.230;2023-05-29T03:40:26;17.20;87.70
4509;DHT22;2267;48.816;9.230;2023-05-29T03:42:53;17.10;87.70
4509;DHT22;2267;48.816;9.230;2023-05-29T03:45:20;17.10;87.60
4509;DHT22;2267;48.816;9.230;2023-05-29T03:47:47;17.10;87.20
4509;DHT22;2267;48.816;9.230;2023-05-29T03:50:14;17.10;87.70
4509;DHT22;2267;48.816;9.230;2023-05-29T03:52:42;17.10;88.20
4509;DHT22;2267;48.816;9.230;2023-05-29T03:55:10;17.00;87.60
4509;DHT22;2267;48.816;9.230;2023-05-29T03:57:41;17.00;88.20
4509;DHT22;2267;48.816;9.230;2023-05-29T04:00:11;16.90;88.40
4509;DHT22;2267;48.816;9.230;2023-05-29T04:02:38;16.90;88.50
4509;DHT22;2267;48.816;9.230;2023-05-29T04:05:06;17.00;88.30
4509;DHT22;2267;48.816;9.230;2023-05-29T04:07:33;17.00;88.20
4509;DHT22;2267;48.816;9.230;2023-05-29T04:10:00;17.00;88.70
4509;DHT22;2267;48.816;9.230;2023-05-29T04:12:27;16.90;88.30
4509;DHT22;2267;48.816;9.230;2023-05-29T04:14:54;16.90;88.20
4509;DHT22;2267;48.816;9.230;2023-05-29T04:17:21;16.90;88.70
4509;DHT22;2267;48.816;9.230;2023-05-29T04:19:48;16.90;89.40
4509;DHT22;2267;48.816;9.230;2023-05-29T04:22:14;17.00;90.00
4509;DHT22;2267;48.816;9.230;2023-05-29T04:24:42;16.90;90.30
4509;DHT22;2267;48.816;9.230;2023-05-29T04:27:09;16.90;90.60
4509;DHT22;2267;48.816;9.230;2023-05-29T04:29:43;16.90;90.90
4509;DHT22;2267;48.816;9.230;2023-05-29T04:32:10;16.90;90.90
4509;DHT22;2267;48.816;9.230;2023-05-29T04:34:38;16.90;91.10
4509;DHT22;2267;48.816;9.230;2023-05-29T04:37:10;16.90;91.00
4509;DHT22;2267;48.816;9.230;2023-05-29T04:39:37;16.90;90.90
4509;DHT22;2267;48.816;9.230;2023-05-29T04:42:04;16.90;91.10
4509;DHT22;2267;48.816;9.230;2023-05-29T04:44:31;16.90;91.10
4509;DHT22;2267;48.816;9.230;2023-05-29T04:46:59;16.90;90.90
4509;DHT22;2267;48.816;9.230;2023-05-29T04:49:30;16.90;90.60
4509;DHT22;2267;48.816;9.230;2023-05-29T04:51:57;16.90;90.60
4509;DHT22;2267;48.816;9.230;2023-05-29T04:54:27;17.00;90.80
4509;DHT22;2267;48.816;9.230;2023-05-29T04:56:54;17.00;90.60
4509;DHT22;2267;48.816;9.230;2023-05-29T04:59:21;17.00;90.70
4509;DHT22;2267;48.816;9.230;2023-05-29T05:01:48;17.00;90.80
4509;DHT22;2267;48.816;9.230;2023-05-29T05:04:15;17.10;91.00
4509;DHT22;2267;48.816;9.230;2023-05-29T05:06:42;17.10;90.60
4509;DHT22;2267;48.816;9.230;2023-05-29T05:09:10;17.10;90.40
4509;DHT22;2267;48.816;9.230;2023-05-29T05:11:37;17.10;90.60
4509;DHT22;2267;48.816;9.230;2023-05-29T05:14:04;17.20;90.30
4509;DHT22;2267;48.816;9.230;2023-05-29T05:16:31;17.20;90.10
4509;DHT22;2267;48.816;9.230;2023-05-29T05:19:00;17.20;90.00
4509;DHT22;2267;48.816;9.230;2023-05-29T05:21:26;17.30;90.10
4509;DHT22;2267;48.816;9.230;2023-05-29T05:23:53;17.30;89.80
4509;DHT22;2267;48.816;9.230;2023-05-29T05:26:24;17.30;89.80
4509;DHT22;2267;48.816;9.230;2023-05-29T05:28:53;17.30;90.00
4509;DHT22;2267;48.816;9.230;2023-05-29T05:31:20;17.40;89.80
4509;DHT22;2267;48.816;9.230;2023-05-29T05:33:47;17.40;89.90
4509;DHT22;2267;48.816;9.230;2023-05-29T05:36:14;17.40;89.70
4509;DHT22;2267;48.816;9.230;2023-05-29T05:38:41;17.50;89.70
4509;DHT22;2267;48.816;9.230;2023-05-29T05:41:08;17.50;89.50
4509;DHT22;2267;48.816;9.230;2023-05-29T05:43:35;17.60;89.30
4509;DHT22;2267;48.816;9.230;2023-05-29T05:46:02;17.60;88.90
4509;DHT22;2267;48.816;9.230;2023-05-29T05:48:28;17.60;89.00
4509;DHT22;2267;48.816;9.230;2023-05-29T05:50:55;17.60;88.40
4509;DHT22;2267;48.816;9.230;2023-05-29T05:53:23;17.70;88.20
4509;DHT22;2267;48.816;9.230;2023-05-29T05:55:49;17.70;88.00
4509;DHT22;2267;48.816;9.230;2023-05-29T05:58:16;17.80;88.10
4509;DHT22;2267;48.816;9.230;2023-05-29T06:00:43;17.80;88.20
4509;DHT22;2267;48.816;9.230;2023-05-29T06:03:10;17.80;88.00
4509;DHT22;2267;48.816;9.230;2023-05-29T06:05:37;17.90;88.50
4509;DHT22;2267;48.816;9.230;2023-05-29T06:08:06;17.90;88.30
4509;DHT22;2267;48.816;9.230;2023-05-29T06:10:35;18.00;87.80
4509;DHT22;2267;48.816;9.230;2023-05-29T06:13:02;18.00;87.80
4509;DHT22;2267;48.816;9.230;2023-05-29T06:15:29;18.00;87.80
4509;DHT22;2267;48.816;9.230;2023-05-29T06:17:56;18.10;87.90
4509;DHT22;2267;48.816;9.230;2023-05-29T06:20:23;18.10;87.70
4509;DHT22;2267;48.816;9.230;2023-05-29T06:22:50;18.10;87.60
4509;DHT22;2267;48.816;9.230;2023-05-29T06:25:17;18.20;87.50
4509;DHT22;2267;48.816;9.230;2023-05-29T06:27:46;18.20;87.10
4509;DHT22;2267;48.816;9.230;2023-05-29T06:30:14;18.20;86.90
4509;DHT22;2267;48.816;9.230;2023-05-29T06:32:41;18.30;87.20
4509;DHT22;2267;48.816;9.230;2023-05-29T06:35:08;18.30;88.20
4509;DHT22;2267;48.816;9.230;2023-05-29T06:37:35;18.30;87.60
4509;DHT22;2267;48.816;9.230;2023-05-29T06:40:02;18.40;87.90
4509;DHT22;2267;48.816;9.230;2023-05-29T06:42:30;18.40;88.10
4509;DHT22;2267;48.816;9.230;2023-05-29T06:44:57;18.50;88.30
4509;DHT22;2267;48.816;9.230;2023-05-29T06:47:24;18.50;88.20
4509;DHT22;2267;48.816;9.230;2023-05-29T06:49:51;18.50;88.20
4509;DHT22;2267;48.816;9.230;2023-05-29T06:52:18;18.60;88.30
4509;DHT22;2267;48.816;9.230;2023-05-29T06:54:45;18.60;88.20
4509;DHT22;2267;48.816;9.230;2023-05-29T06:57:12;18.70;88.10
4509;DHT22;2267;48.816;9.230;2023-05-29T06:59:39;18.70;88.40
4509;DHT22;2267;48.816;9.230;2023-05-29T07:02:06;18.70;88.70
4509;DHT22;2267;48.816;9.230;2023-05-29T07:04:33;18.80;88.90
4509;DHT22;2267;48.816;9.230;2023-05-29T07:07:00;18.80;88.50
4509;DHT22;2267;48.816;9.230;2023-05-29T07:09:26;18.90;88.20
4509;DHT22;2267;48.816;9.230;2023-05-29T07:11:54;18.90;87.70
4509;DHT22;2267;48.816;9.230;2023-05-29T07:14:21;18.90;87.30
4509;DHT22;2267;48.816;9.230;2023-05-29T07:16:48;19.00;87.00
4509;DHT22;2267;48.816;9.230;2023-05-29T07:19:15;19.00;87.10
4509;DHT22;2267;48.816;9.230;2023-05-29T07:21:48;19.00;87.20
4509;DHT22;2267;48.816;9.230;2023-05-29T07:24:15;19.10;87.00
4509;DHT22;2267;48.816;9.230;2023-05-29T07:26:41;19.10;87.20
4509;DHT22;2267;48.816;9.230;2023-05-29T07:29:09;19.20;86.90
4509;DHT22;2267;48.816;9.230;2023-05-29T07:31:36;19.20;85.90
4509;DHT22;2267;48.816;9.230;2023-05-29T07:34:05;19.20;85.60
4509;DHT22;2267;48.816;9.230;2023-05-29T07:36:32;19.30;85.50
4509;DHT22;2267;48.816;9.230;2023-05-29T07:38:58;19.30;86.20
4509;DHT22;2267;48.816;9.230;2023-05-29T07:41:25;19.40;85.70
4509;DHT22;2267;48.816;9.230;2023-05-29T07:43:55;19.50;84.90
4509;DHT22;2267;48.816;9.230;2023-05-29T07:46:22;19.50;83.80
4509;DHT22;2267;48.816;9.230;2023-05-29T07:48:49;19.50;83.70
4509;DHT22;2267;48.816;9.230;2023-05-29T07:51:16;19.60;83.40
4509;DHT22;2267;48.816;9.230;2023-05-29T07:53:45;19.60;83.70
4509;DHT22;2267;48.816;9.230;2023-05-29T07:56:12;19.60;83.60
4509;DHT22;2267;48.816;9.230;2023-05-29T07:58:40;19.70;83.80
4509;DHT22;2267;48.816;9.230;2023-05-29T08:01:08;19.70;83.60
4509;DHT22;2267;48.816;9.230;2023-05-29T08:03:35;19.80;83.50
4509;DHT22;2267;48.816;9.230;2023-05-29T08:06:02;19.80;83.00
4509;DHT22;2267;48.816;9.230;2023-05-29T08:08:29;19.80;82.60
4509;DHT22;2267;48.816;9.230;2023-05-29T08:10:57;19.90;82.90
4509;DHT22;2267;48.816;9.230;2023-05-29T08:13:24;19.90;82.90
4509;DHT22;2267;48.816;9.230;2023-05-29T08:15:50;20.00;83.90
4509;DHT22;2267;48.816;9.230;2023-05-29T08:18:17;20.00;83.80
4509;DHT22;2267;48.816;9.230;2023-05-29T08:20:44;20.10;83.70
4509;DHT22;2267;48.816;9.230;2023-05-29T08:23:11;20.10;84.40
4509;DHT22;2267;48.816;9.230;2023-05-29T08:25:38;20.20;84.00
4509;DHT22;2267;48.816;9.230;2023-05-29T08:28:05;20.20;83.70
4509;DHT22;2267;48.816;9.230;2023-05-29T08:30:32;20.30;83.50
4509;DHT22;2267;48.816;9.230;2023-05-29T08:32:59;20.30;83.90
4509;DHT22;2267;48.816;9.230;2023-05-29T08:35:26;20.40;84.10
4509;DHT22;2267;48.816;9.230;2023-05-29T08:37:53;20.40;84.10
4509;DHT22;2267;48.816;9.230;2023-05-29T08:40:19;20.50;83.50
4509;DHT22;2267;48.816;9.230;2023-05-29T08:42:57;20.50;85.10
4509;DHT22;2267;48.816;9.230;2023-05-29T08:45:25;20.60;85.10
4509;DHT22;2267;48.816;9.230;2023-05-29T08:47:53;20.60;85.00
4509;DHT22;2267;48.816;9.230;2023-05-29T08:50:21;20.60;85.80
4509;DHT22;2267;48.816;9.230;2023-05-29T08:52:48;20.70;85.40
4509;DHT22;2267;48.816;9.230;2023-05-29T08:55:16;20.70;84.70
4509;DHT22;2267;48.816;9.230;2023-05-29T08:57:43;20.80;85.20
4509;DHT22;2267;48.816;9.230;2023-05-29T09:00:11;20.80;85.30
4509;DHT22;2267;48.816;9.230;2023-05-29T09:02:40;20.90;85.50
4509;DHT22;2267;48.816;9.230;2023-05-29T09:05:07;20.90;84.70
4509;DHT22;2267;48.816;9.230;2023-05-29T09:07:36;21.00;85.50
4509;DHT22;2267;48.816;9.230;2023-05-29T09:10:09;21.00;85.00
4509;DHT22;2267;48.816;9.230;2023-05-29T09:12:36;21.00;84.40
4509;DHT22;2267;48.816;9.230;2023-05-29T09:15:24;21.10;84.30
4509;DHT22;2267;48.816;9.230;2023-05-29T09:17:56;21.10;85.00
4509;DHT22;2267;48.816;9.230;2023-05-29T09:20:26;21.20;84.70
4509;DHT22;2267;48.816;9.230;2023-05-29T09:22:55;21.30;85.00
4509;DHT22;2267;48.816;9.230;2023-05-29T09:25:24;21.30;85.40
4509;DHT22;2267;48.816;9.230;2023-05-29T09:28:02;21.40;83.90
4509;DHT22;2267;48.816;9.230;2023-05-29T09:30:44;21.50;84.10
4509;DHT22;2267;48.816;9.230;2023-05-29T09:33:12;21.60;84.30
4509;DHT22;2267;48.816;9.230;2023-05-29T09:35:47;21.60;84.50
4509;DHT22;2267;48.816;9.230;2023-05-29T09:38:16;21.60;84.70
4509;DHT22;2267;48.816;9.230;2023-05-29T09:41:04;21.70;82.90
4509;DHT22;2267;48.816;9.230;2023-05-29T09:43:31;21.70;82.90
4509;DHT22;2267;48.816;9.230;2023-05-29T09:46:01;21.70;83.20
4509;DHT22;2267;48.816;9.230;2023-05-29T09:48:29;21.80;83.30
4509;DHT22;2267;48.816;9.230;2023-05-29T09:50:57;21.80;83.10
4509;DHT22;2267;48.816;9.230;2023-05-29T09:53:27;21.90;83.40
4509;DHT22;2267;48.816;9.230;2023-05-29T09:55:56;21.90;82.70
4509;DHT22;2267;48.816;9.230;2023-05-29T09:58:24;22.00;82.00
4509;DHT22;2267;48.816;9.230;2023-05-29T10:00:52;22.00;82.30
4509;DHT22;2267;48.816;9.230;2023-05-29T10:03:20;22.10;81.80
4509;DHT22;2267;48.816;9.230;2023-05-29T10:05:53;22.10;82.80
4509;DHT22;2267;48.816;9.230;2023-05-29T10:08:21;22.20;78.30
4509;DHT22;2267;48.816;9.230;2023-05-29T10:10:59;22.20;78.10
4509;DHT22;2267;48.816;9.230;2023-05-29T10:13:28;22.30;77.50
4509;DHT22;2267;48.816;9.230;2023-05-29T10:15:59;22.40;77.10
4509;DHT22;2267;48.816;9.230;2023-05-29T10:18:32;22.50;75.80
4509;DHT22;2267;48.816;9.230;2023-05-29T10:21:01;22.60;73.50
4509;DHT22;2267;48.816;9.230;2023-05-29T10:23:29;22.70;74.00
4509;DHT22;2267;48.816;9.230;2023-05-29T10:26:04;22.80;72.70
4509;DHT22;2267;48.816;9.230;2023-05-29T10:28:33;22.90;72.10
4509;DHT22;2267;48.816;9.230;2023-05-29T10:31:09;23.00;70.50
4509;DHT22;2267;48.816;9.230;2023-05-29T10:36:22;23.10;72.50
4509;DHT22;2267;48.816;9.230;2023-05-29T10:38:53;23.20;71.20
4509;DHT22;2267;48.816;9.230;2023-05-29T10:41:28;23.20;72.60
4509;DHT22;2267;48.816;9.230;2023-05-29T10:44:02;23.30;72.30
4509;DHT22;2267;48.816;9.230;2023-05-29T10:49:19;23.50;71.00
4509;DHT22;2267;48.816;9.230;2023-05-29T10:51:46;23.50;70.80
4509;DHT22;2267;48.816;9.230;2023-05-29T10:54:15;23.60;71.20
4509;DHT22;2267;48.816;9.230;2023-05-29T10:56:44;23.70;69.90
4509;DHT22;2267;48.816;9.230;2023-05-29T10:59:18;23.80;68.30
4509;DHT22;2267;48.816;9.230;2023-05-29T11:01:46;23.90;69.60
4509;DHT22;2267;48.816;9.230;2023-05-29T11:06:53;24.00;70.10
4509;DHT22;2267;48.816;9.230;2023-05-29T11:09:36;24.10;70.20
4509;DHT22;2267;48.816;9.230;2023-05-29T11:12:23;24.20;68.90
4509;DHT22;2267;48.816;9.230;2023-05-29T11:15:11;24.30;68.50
4509;DHT22;2267;48.816;9.230;2023-05-29T11:20:14;24.50;66.70
4509;DHT22;2267;48.816;9.230;2023-05-29T11:25:16;24.60;64.60
4509;DHT22;2267;48.816;9.230;2023-05-29T11:27:44;24.70;65.50
4509;DHT22;2267;48.816;9.230;2023-05-29T11:30:11;24.90;64.90
4509;DHT22;2267;48.816;9.230;2023-05-29T11:32:39;25.00;64.60
4509;DHT22;2267;48.816;9.230;2023-05-29T11:35:10;25.10;64.70
4509;DHT22;2267;48.816;9.230;2023-05-29T11:37:39;25.10;63.00
4509;DHT22;2267;48.816;9.230;2023-05-29T11:40:07;25.20;62.90
4509;DHT22;2267;48.816;9.230;2023-05-29T11:42:37;25.30;63.40
4509;DHT22;2267;48.816;9.230;2023-05-29T11:47:59;25.50;59.20
4509;DHT22;2267;48.816;9.230;2023-05-29T11:50:29;25.60;58.20
4509;DHT22;2267;48.816;9.230;2023-05-29T11:52:57;25.70;58.20
4509;DHT22;2267;48.816;9.230;2023-05-29T11:55:25;25.80;57.80
4509;DHT22;2267;48.816;9.230;2023-05-29T11:58:00;25.80;58.00
4509;DHT22;2267;48.816;9.230;2023-05-29T12:00:34;25.90;57.90
4509;DHT22;2267;48.816;9.230;2023-05-29T12:03:03;25.90;58.40
4509;DHT22;2267;48.816;9.230;2023-05-29T12:05:51;26.00;57.80
4509;DHT22;2267;48.816;9.230;2023-05-29T12:08:23;26.10;57.80
4509;DHT22;2267;48.816;9.230;2023-05-29T12:10:52;26.10;58.40
4509;DHT22;2267;48.816;9.230;2023-05-29T12:13:20;26.20;57.10
4509;DHT22;2267;48.816;9.230;2023-05-29T12:15:48;26.30;57.60
4509;DHT22;2267;48.816;9.230;2023-05-29T12:18:18;26.30;58.20
4509;DHT22;2267;48.816;9.230;2023-05-29T12:20:45;26.50;57.00
4509;DHT22;2267;48.816;9.230;2023-05-29T12:23:12;26.50;55.50
4509;DHT22;2267;48.816;9.230;2023-05-29T12:25:39;26.60;55.50
4509;DHT22;2267;48.816;9.230;2023-05-29T12:28:06;26.70;54.30
4509;DHT22;2267;48.816;9.230;2023-05-29T12:30:37;26.80;54.80
4509;DHT22;2267;48.816;9.230;2023-05-29T12:33:05;26.90;54.50
4509;DHT22;2267;48.816;9.230;2023-05-29T12:35:33;27.00;54.60
4509;DHT22;2267;48.816;9.230;2023-05-29T12:38:00;27.00;54.00
4509;DHT22;2267;48.816;9.230;2023-05-29T12:40:29;27.10;54.40
4509;DHT22;2267;48.816;9.230;2023-05-29T12:43:06;27.10;51.60
4509;DHT22;2267;48.816;9.230;2023-05-29T12:45:35;27.20;50.60
4509;DHT22;2267;48.816;9.230;2023-05-29T12:48:04;27.20;50.00
4509;DHT22;2267;48.816;9.230;2023-05-29T12:50:39;27.30;50.60
4509;DHT22;2267;48.816;9.230;2023-05-29T12:53:12;27.30;50.60
4509;DHT22;2267;48.816;9.230;2023-05-29T12:55:40;27.40;50.80
4509;DHT22;2267;48.816;9.230;2023-05-29T12:58:16;27.40;50.00
4509;DHT22;2267;48.816;9.230;2023-05-29T13:00:43;27.40;49.40
4509;DHT22;2267;48.816;9.230;2023-05-29T13:03:12;27.50;50.70
4509;DHT22;2267;48.816;9.230;2023-05-29T13:05:39;27.60;50.40
4509;DHT22;2267;48.816;9.230;2023-05-29T13:08:07;27.70;50.30
4509;DHT22;2267;48.816;9.230;2023-05-29T13:10:37;27.80;50.20
4509;DHT22;2267;48.816;9.230;2023-05-29T13:13:04;27.90;51.00
4509;DHT22;2267;48.816;9.230;2023-05-29T13:15:30;27.90;51.30
4509;DHT22;2267;48.816;9.230;2023-05-29T13:17:59;27.90;50.10
4509;DHT22;2267;48.816;9.230;2023-05-29T13:20:27;27.90;50.10
4509;DHT22;2267;48.816;9.230;2023-05-29T13:22:54;28.00;50.50
4509;DHT22;2267;48.816;9.230;2023-05-29T13:25:21;28.10;50.60
4509;DHT22;2267;48.816;9.230;2023-05-29T13:27:50;28.20;50.00
4509;DHT22;2267;48.816;9.230;2023-05-29T13:30:18;28.20;49.80
4509;DHT22;2267;48.816;9.230;2023-05-29T13:32:45;28.30;48.90
4509;DHT22;2267;48.816;9.230;2023-05-29T13:35:12;28.20;48.60
4509;DHT22;2267;48.816;9.230;2023-05-29T13:37:39;28.30;48.90
4509;DHT22;2267;48.816;9.230;2023-05-29T13:40:07;28.30;48.80
4509;DHT22;2267;48.816;9.230;2023-05-29T13:42:36;28.30;49.00
4509;DHT22;2267;48.816;9.230;2023-05-29T13:45:06;28.40;50.20
4509;DHT22;2267;48.816;9.230;2023-05-29T13:47:35;28.50;49.00
4509;DHT22;2267;48.816;9.230;2023-05-29T13:50:03;28.40;48.60
4509;DHT22;2267;48.816;9.230;2023-05-29T13:52:30;28.50;48.20
4509;DHT22;2267;48.816;9.230;2023-05-29T13:54:57;28.40;48.20
4509;DHT22;2267;48.816;9.230;2023-05-29T13:57:31;28.50;48.90
4509;DHT22;2267;48.816;9.230;2023-05-29T13:59:58;28.50;47.90
4509;DHT22;2267;48.816;9.230;2023-05-29T14:02:25;28.50;48.60
4509;DHT22;2267;48.816;9.230;2023-05-29T14:04:52;28.60;49.10
4509;DHT22;2267;48.816;9.230;2023-05-29T14:07:19;28.60;48.80
4509;DHT22;2267;48.816;9.230;2023-05-29T14:09:46;28.60;48.30
4509;DHT22;2267;48.816;9.230;2023-05-29T14:12:13;28.60;48.80
4509;DHT22;2267;48.816;9.230;2023-05-29T14:14:40;28.70;48.90
4509;DHT22;2267;48.816;9.230;2023-05-29T14:17:07;28.70;47.40
4509;DHT22;2267;48.816;9.230;2023-05-29T14:19:34;28.60;47.70
4509;DHT22;2267;48.816;9.230;2023-05-29T14:22:01;28.60;48.50
4509;DHT22;2267;48.816;9.230;2023-05-29T14:24:28;28.60;49.00
4509;DHT22;2267;48.816;9.230;2023-05-29T14:26:55;28.60;49.60
4509;DHT22;2267;48.816;9.230;2023-05-29T14:29:22;28.60;48.60
4509;DHT22;2267;48.816;9.230;2023-05-29T14:31:49;28.70;49.60
4509;DHT22;2267;48.816;9.230;2023-05-29T14:34:16;28.70;48.80
4509;DHT22;2267;48.816;9.230;2023-05-29T14:36:43;28.70;49.00
4509;DHT22;2267;48.816;9.230;2023-05-29T14:39:11;28.80;49.40
4509;DHT22;2267;48.816;9.230;2023-05-29T14:41:39;28.90;49.60
4509;DHT22;2267;48.816;9.230;2023-05-29T14:44:06;28.90;50.10
4509;DHT22;2267;48.816;9.230;2023-05-29T14:46:33;28.80;47.50
4509;DHT22;2267;48.816;9.230;2023-05-29T14:49:01;28.70;48.00
4509;DHT22;2267;48.816;9.230;2023-05-29T14:51:28;28.70;48.40
4509;DHT22;2267;48.816;9.230;2023-05-29T14:53:55;28.70;47.80
4509;DHT22;2267;48.816;9.230;2023-05-29T14:56:22;28.70;48.90
4509;DHT22;2267;48.816;9.230;2023-05-29T14:58:48;28.60;49.00
4509;DHT22;2267;48.816;9.230;2023-05-29T15:01:17;28.70;49.60
4509;DHT22;2267;48.816;9.230;2023-05-29T15:03:44;28.70;49.30
4509;DHT22;2267;48.816;9.230;2023-05-29T15:06:11;28.70;49.30
4509;DHT22;2267;48.816;9.230;2023-05-29T15:08:39;28.80;50.00
4509;DHT22;2267;48.816;9.230;2023-05-29T15:11:07;28.80;50.10
4509;DHT22;2267;48.816;9.230;2023-05-29T15:13:35;28.90;50.00
4509;DHT22;2267;48.816;9.230;2023-05-29T15:16:03;28.90;49.60
4509;DHT22;2267;48.816;9.230;2023-05-29T15:18:30;28.90;49.70
4509;DHT22;2267;48.816;9.230;2023-05-29T15:20:57;28.90;49.40
4509;DHT22;2267;48.816;9.230;2023-05-29T15:23:25;28.80;50.40
4509;DHT22;2267;48.816;9.230;2023-05-29T15:25:53;28.80;49.70
4509;DHT22;2267;48.816;9.230;2023-05-29T15:28:20;28.80;50.10
4509;DHT22;2267;48.816;9.230;2023-05-29T15:30:47;28.90;50.70
4509;DHT22;2267;48.816;9.230;2023-05-29T15:33:15;28.90;50.40
4509;DHT22;2267;48.816;9.230;2023-05-29T15:35:41;28.80;51.30
4509;DHT22;2267;48.816;9.230;2023-05-29T15:38:09;28.30;53.90
4509;DHT22;2267;48.816;9.230;2023-05-29T15:40:39;27.60;52.30
4509;DHT22;2267;48.816;9.230;2023-05-29T15:43:07;27.60;53.60
4509;DHT22;2267;48.816;9.230;2023-05-29T15:45:34;27.70;53.90
4509;DHT22;2267;48.816;9.230;2023-05-29T15:48:01;27.70;54.20
4509;DHT22;2267;48.816;9.230;2023-05-29T15:50:28;27.50;53.90
4509;DHT22;2267;48.816;9.230;2023-05-29T15:52:54;27.50;54.40
4509;DHT22;2267;48.816;9.230;2023-05-29T15:55:23;27.30;52.30
4509;DHT22;2267;48.816;9.230;2023-05-29T15:57:50;27.50;53.10
4509;DHT22;2267;48.816;9.230;2023-05-29T16:00:17;27.40;53.10
4509;DHT22;2267;48.816;9.230;2023-05-29T16:02:44;27.30;52.10
4509;DHT22;2267;48.816;9.230;2023-05-29T16:05:11;27.30;52.20
4509;DHT22;2267;48.816;9.230;2023-05-29T16:07:38;27.30;52.40
4509;DHT22;2267;48.816;9.230;2023-05-29T16:10:06;27.40;52.80
4509;DHT22;2267;48.816;9.230;2023-05-29T16:12:33;27.40;52.60
4509;DHT22;2267;48.816;9.230;2023-05-29T16:15:00;27.20;51.30
4509;DHT22;2267;48.816;9.230;2023-05-29T16:17:27;27.20;51.20
4509;DHT22;2267;48.816;9.230;2023-05-29T16:19:54;27.20;51.90
4509;DHT22;2267;48.816;9.230;2023-05-29T16:22:23;27.10;51.30
4509;DHT22;2267;48.816;9.230;2023-05-29T16:25:07;26.90;51.80
4509;DHT22;2267;48.816;9.230;2023-05-29T16:27:35;26.70;51.50
4509;DHT22;2267;48.816;9.230;2023-05-29T16:30:03;26.60;52.00
4509;DHT22;2267;48.816;9.230;2023-05-29T16:32:30;26.70;52.10
4509;DHT22;2267;48.816;9.230;2023-05-29T16:34:57;26.80;51.70
4509;DHT22;2267;48.816;9.230;2023-05-29T16:37:26;26.80;52.10